• Join FlightAware (Why Join?)
  • Login
  • US Flag 
04:15AM EDT


 

Airport Tracker/Info


-or-


 

Live Flight TrackerFlight Track Log ✈ N24BE ✈ 03-Jul-2013 ✈ KMBO - KJKA

Flight Track Log - Related Links

Times and Time Zones

All times are in EDT time to prevent confusion due to time zone crossing. See the N24BE flight status page for this flight to view local times or setup timezone preferences in your user account.

Time Position Orientation Groundspeed Altitude Reporting Facility
EDT Latitude Longitude Course Direction KTS MPH feet Rate Location/Type
11:44AM 32.2634 -89.9059 134° Southeast  Level FlightAware Approximate
11:45AM 32.2358 -89.8727 134° Southeast  Level FlightAware Approximate
11:46AM 32.2082 -89.8395 135° Southeast  Level FlightAware Approximate
11:47AM 32.1806 -89.8064 135° Southeast  Level FlightAware Approximate
11:48AM 32.1529 -89.7732 135° Southeast  Level FlightAware Approximate
11:48AM 32.1778 -89.7781 141° Southeast 166 191 5,100  Level Memphis Center
11:49AM 32.1253 -89.7401 135° Southeast  Level FlightAware Approximate
11:49AM 32.1464 -89.7414 135° Southeast 161 185 5,100  Level Memphis Center
11:50AM 32.0976 -89.7070 135° Southeast  Level FlightAware Approximate
11:50AM 32.1106 -89.7050 139° Southeast 161 185 5,100  Level Memphis Center
11:51AM 32.0700 -89.6739 135° Southeast  Level FlightAware Approximate
11:51AM 32.0792 -89.6683 135° Southeast 161 185 5,100  Level Memphis Center
11:52AM 32.0421 -89.6411 136° Southeast  Level FlightAware Approximate
11:52AM 32.0456 -89.6319 137° Southeast 161 185 5,100  Level Memphis Center
11:53AM 32.0119 -89.5956 137° Southeast 161 185 5,100  Level Memphis Center
11:54AM 31.9783 -89.5589 137° Southeast 161 185 5,100  Level Memphis Center
11:55AM 31.9447 -89.5200 136° Southeast 161 185 5,100  Level Memphis Center
11:56AM 31.9153 -89.4789 130° Southeast 161 185 5,100  Level Memphis Center
11:57AM 31.8836 -89.4400 134° Southeast 166 191 5,100  Level Memphis Center
11:58AM 31.8539 -89.3986 130° Southeast 166 191 5,100  Level Memphis Center
11:59AM 31.8203 -89.3647 139° Southeast 166 191 5,100  Level Memphis Center
12:00PM 31.7867 -89.3286 138° Southeast 166 191 5,100  Level Memphis Center
12:01PM 31.7508 -89.2922 139° Southeast 166 191 5,100  Level Memphis Center
12:02PM 31.7097 -89.2478 137° Southeast 165 190 5,100  Level Houston Center
12:03PM 31.6778 -89.2094 134° Southeast 164 189 5,100  Level Houston Center
12:04PM 31.6464 -89.1725 135° Southeast 162 186 5,100  Level Houston Center
12:06PM 31.6178 -89.1319 130° Southeast 160 184 5,100  Level Houston Center
12:07PM 31.5881 -89.0806 124° Southeast 160 184 5,100  Level Houston Center
12:08PM 31.5636 -89.0375 124° Southeast 160 184 5,100  Level Houston Center
12:09PM 31.5439 -88.9911 117° Southeast 159 183 5,100  Level Houston Center
12:10PM 31.5264 -88.9428 113° Southeast 160 184 5,100  Level Houston Center
12:11PM 31.5081 -88.8950 114° Southeast 161 185 5,100  Level Houston Center
12:12PM 31.4900 -88.8472 114° Southeast 161 185 5,100  Level Houston Center
12:13PM 31.4669 -88.7903 115° Southeast 162 186 5,100  Level Houston Center
12:14PM 31.4461 -88.7436 118° Southeast 161 185 5,100  Level Houston Center
12:15PM 31.4264 -88.6975 117° Southeast 160 184 5,100  Level Houston Center
12:16PM 31.4056 -88.6503 117° Southeast 162 186 5,100  Level Houston Center
12:17PM 31.3861 -88.6050 117° Southeast 160 184 5,100  Level Houston Center
12:18PM 31.3667 -88.5592 116° Southeast 156 180 5,100  Level Houston Center
12:19PM 31.3431 -88.5064 118° Southeast 155 178 5,100  Level Houston Center
12:20PM 31.3247 -88.4619 116° Southeast 152 175 5,100  Level Houston Center
12:21PM 31.2917 -88.4322 142° Southeast 155 178 5,100 -60 Level Houston Center
12:22PM 31.2525 -88.4081 152° Southeast 158 182 5,000  Descending Houston Center
12:23PM 31.2147 -88.3817 149° Southeast 159 183 5,100  Climbing Houston Center
12:24PM 31.1686 -88.3519 151° Southeast 158 182 5,100  Level Houston Center
12:25PM 31.1294 -88.3267 151° Southeast 160 184 5,100  Level Houston Center
12:26PM 31.0908 -88.3000 149° Southeast 160 184 5,100  Level Houston Center
12:27PM 31.0547 -88.2714 146° Southeast 159 183 5,100  Level Houston Center
12:28PM 31.0136 -88.2358 143° Southeast 161 185 5,100  Level Houston Center
12:29PM 30.9817 -88.2017 137° Southeast 160 184 5,100  Level Houston Center
12:30PM 30.9475 -88.1683 140° Southeast 160 184 5,100  Level Houston Center
12:31PM 30.9119 -88.1372 143° Southeast 161 185 5,100  Level Houston Center
12:32PM 30.8733 -88.1092 148° Southeast 162 186 5,100  Level Houston Center
12:33PM 30.8264 -88.0789 151° Southeast 161 185 5,100  Level Houston Center
12:35PM 30.7881 -88.0522 149° Southeast 161 185 5,100 -60 Level Houston Center
12:36PM 30.7506 -88.0250 148° Southeast 161 185 5,000 -120 Descending Houston Center
12:37PM 30.7125 -87.9975 148° Southeast 160 184 4,900 -300 Descending Houston Center
12:38PM 30.6722 -87.9675 147° Southeast 166 191 4,400 -480 Descending Houston Center
12:39PM 30.6319 -87.9403 150° Southeast 169 194 4,000 -540 Descending Houston Center
12:40PM 30.5836 -87.9069 149° Southeast 168 193 3,400 -540 Descending Houston Center
12:41PM 30.5436 -87.8786 149° Southeast 169 194 3,000 -240 Descending Houston Center
12:42PM 30.5061 -87.8511 148° Southeast 165 190 3,000  Level Houston Center
12:43PM 30.4722 -87.8242 146° Southeast 157 181 3,000 -240 Level Houston Center
12:44PM 30.4372 -87.7969 146° Southeast 153 176 2,600 -420 Descending Houston Center
12:45PM 30.3908 -87.7614 147° Southeast 160 184 2,200 -360 Descending Houston Center
12:46PM 30.3525 -87.7350 149° Southeast 161 185 1,900 -420 Descending Houston Center
12:47PM 30.3142 -87.7106 151° Southeast 160 184 1,400 -480 Descending Houston Center
12:48PM 30.2733 -87.7100 179° South 147 169 1,000 -420 Descending Houston Center
12:50PM 30.2833 -87.6667 147° Southeast  Level FlightAware Approximate
12:57PM 30.2896 -87.6718 147° Southeast  Level Estimated
12:58PM 30.2896 -87.6718 147° Southeast  Level Estimated